createdAt,value
2022-10-09T00:00:21.987Z,6.05
2022-10-09T00:03:12.586Z,6.02
2022-10-09T00:05:44.334Z,5.99
2022-10-09T00:08:15.272Z,5.95
2022-10-09T00:10:47.027Z,5.91
2022-10-09T00:13:17.972Z,5.89
2022-10-09T00:15:49.523Z,5.85
2022-10-09T00:18:21.066Z,5.81
2022-10-09T00:20:52.120Z,5.76
2022-10-09T00:23:22.889Z,5.73
2022-10-09T00:25:56.558Z,5.71
2022-10-09T00:28:29.735Z,5.69
2022-10-09T00:31:00.653Z,5.67
2022-10-09T00:33:31.528Z,5.63
2022-10-09T00:36:05.540Z,5.61
2022-10-09T00:38:37.296Z,5.61
2022-10-09T00:41:08.870Z,5.57
2022-10-09T00:43:46.923Z,5.54
2022-10-09T00:46:26.418Z,5.50
2022-10-09T00:49:03.564Z,5.47
2022-10-09T00:51:35.339Z,5.45
2022-10-09T00:54:10.106Z,5.42
2022-10-09T00:56:41.263Z,5.35
2022-10-09T00:59:12.866Z,5.25
2022-10-09T01:01:44.715Z,5.11
2022-10-09T01:04:16.054Z,5.00
2022-10-09T01:06:57.306Z,4.90
2022-10-09T01:09:36.123Z,4.81
2022-10-09T01:12:13.997Z,4.76
2022-10-09T01:14:52.068Z,4.72
2022-10-09T01:17:31.986Z,4.69
2022-10-09T01:20:26.716Z,4.66
2022-10-09T01:23:13.405Z,4.62
2022-10-09T01:25:55.040Z,4.61
2022-10-09T01:28:29.120Z,4.59
2022-10-09T01:31:03.922Z,4.56
2022-10-09T01:33:35.708Z,4.55
2022-10-09T01:36:09.402Z,4.53
2022-10-09T01:38:42.543Z,4.49
2022-10-09T01:41:13.658Z,4.44
2022-10-09T01:43:44.724Z,4.37
2022-10-09T01:46:29.218Z,4.26
2022-10-09T01:49:14.034Z,4.10
2022-10-09T01:51:53.225Z,4.02
2022-10-09T01:54:33.561Z,3.98
2022-10-09T01:57:06.156Z,3.95
2022-10-09T01:59:43.137Z,3.95
2022-10-09T02:02:43.575Z,3.94
2022-10-09T02:05:24.298Z,3.91
2022-10-09T02:07:56.468Z,3.87
2022-10-09T02:10:27.782Z,3.85
2022-10-09T02:13:00.821Z,3.85
2022-10-09T02:15:38.256Z,3.81
2022-10-09T02:18:14.102Z,3.76
2022-10-09T02:20:49.763Z,3.72
2022-10-09T02:23:21.101Z,3.69
2022-10-09T02:25:53.598Z,3.67
2022-10-09T02:28:25.135Z,3.63
2022-10-09T02:32:01.095Z,3.61
2022-10-09T02:34:55.872Z,3.57
2022-10-09T02:37:26.900Z,3.55
2022-10-09T02:39:57.604Z,3.52
2022-10-09T02:42:31.258Z,3.52
2022-10-09T02:45:02.385Z,3.52
2022-10-09T02:47:33.293Z,3.51
2022-10-09T02:50:04.331Z,3.51
2022-10-09T02:52:35.540Z,3.45
2022-10-09T02:55:05.084Z,3.46
2022-10-09T02:57:36.014Z,3.42
2022-10-09T03:00:08.407Z,3.39
2022-10-09T03:02:39.418Z,3.32
2022-10-09T03:05:12.035Z,3.21
2022-10-09T03:07:50.370Z,3.10
2022-10-09T03:10:22.320Z,3.02
2022-10-09T03:12:53.452Z,2.92
2022-10-09T03:15:24.596Z,2.84
2022-10-09T03:17:55.471Z,2.75
2022-10-09T03:20:26.574Z,2.68
2022-10-09T03:22:58.294Z,2.64
2022-10-09T03:25:29.404Z,2.62
2022-10-09T03:28:00.540Z,2.58
2022-10-09T03:30:31.349Z,2.63
2022-10-09T03:33:02.296Z,2.65
2022-10-09T03:35:33.163Z,2.67
2022-10-09T03:38:03.967Z,2.69
2022-10-09T03:40:34.899Z,2.73
2022-10-09T03:43:05.879Z,2.76
2022-10-09T03:45:37.065Z,2.78
2022-10-09T03:48:08.440Z,2.81
2022-10-09T03:50:39.848Z,2.83
2022-10-09T03:53:12.677Z,2.84
2022-10-09T03:55:44.076Z,2.85
2022-10-09T03:58:13.287Z,2.81
2022-10-09T04:00:46.786Z,2.71
2022-10-09T04:03:24.936Z,2.59
2022-10-09T04:05:55.932Z,2.51
2022-10-09T04:08:27.736Z,2.42
2022-10-09T04:11:00.803Z,2.35
2022-10-09T04:13:31.638Z,2.27
2022-10-09T04:16:02.670Z,2.25
2022-10-09T04:18:33.789Z,2.18
2022-10-09T04:21:05.045Z,2.10
2022-10-09T04:23:36.134Z,2.11
2022-10-09T04:26:07.576Z,2.13
2022-10-09T04:28:38.470Z,2.18
2022-10-09T04:31:09.762Z,2.20
2022-10-09T04:33:39.170Z,2.23
2022-10-09T04:36:10.335Z,2.27
2022-10-09T04:38:41.462Z,2.30
2022-10-09T04:41:13.016Z,2.33
2022-10-09T04:43:43.955Z,2.33
2022-10-09T04:46:15.970Z,2.35
2022-10-09T04:48:48.622Z,2.35
2022-10-09T04:51:20.431Z,2.35
2022-10-09T04:53:51.422Z,2.35
2022-10-09T04:56:24.023Z,2.33
2022-10-09T04:58:55.232Z,2.30
2022-10-09T05:01:28.444Z,2.26
2022-10-09T05:03:59.770Z,2.23
2022-10-09T05:06:30.946Z,2.14
2022-10-09T05:09:01.959Z,2.07
2022-10-09T05:11:33.404Z,2.01
2022-10-09T05:14:04.342Z,1.94
2022-10-09T05:16:49.403Z,1.90
2022-10-09T05:19:26.186Z,1.85
2022-10-09T05:21:58.339Z,1.77
2022-10-09T05:24:29.736Z,1.71
2022-10-09T05:27:01.447Z,1.65
2022-10-09T05:29:32.281Z,1.61
2022-10-09T05:32:03.196Z,1.57
2022-10-09T05:34:37.893Z,1.57
2022-10-09T05:37:09.015Z,1.60
2022-10-09T05:39:39.810Z,1.64
2022-10-09T05:42:10.755Z,1.69
2022-10-09T05:44:41.597Z,1.74
2022-10-09T05:47:13.793Z,1.78
2022-10-09T05:49:44.779Z,1.87
2022-10-09T05:52:15.724Z,1.94
2022-10-09T05:54:46.555Z,2.01
2022-10-09T05:57:25.475Z,2.08
2022-10-09T05:59:59.561Z,2.16
2022-10-09T06:02:30.606Z,2.24
2022-10-09T06:05:01.690Z,2.30
2022-10-09T06:07:33.360Z,2.35
2022-10-09T06:10:05.090Z,2.40
2022-10-09T06:12:36.773Z,2.45
2022-10-09T06:15:09.197Z,2.52
2022-10-09T06:21:39.133Z,2.55
2022-10-09T06:24:23.310Z,2.64
2022-10-09T06:26:56.722Z,2.69
2022-10-09T06:29:30.719Z,2.70
2022-10-09T06:32:02.033Z,2.77
2022-10-09T06:34:32.898Z,2.84
2022-10-09T06:37:03.590Z,2.88
2022-10-09T06:39:34.464Z,2.94
2022-10-09T06:42:05.689Z,3.01
2022-10-09T06:44:35.103Z,3.09
2022-10-09T06:47:06.334Z,3.14
2022-10-09T06:49:37.380Z,3.22
2022-10-09T06:52:08.522Z,3.29
2022-10-09T06:54:39.502Z,3.40
2022-10-09T06:57:10.574Z,3.53
2022-10-09T06:59:41.414Z,3.64
2022-10-09T07:02:12.864Z,3.77
2022-10-09T07:04:43.976Z,3.90
2022-10-09T07:07:15.079Z,4.04
2022-10-09T07:09:46.367Z,4.18
2022-10-09T07:12:17.166Z,4.31
2022-10-09T07:14:57.261Z,4.48
2022-10-09T07:17:29.103Z,4.61
2022-10-09T07:20:00.058Z,4.82
2022-10-09T07:22:31.565Z,4.99
2022-10-09T07:25:02.479Z,5.18
2022-10-09T07:27:31.936Z,5.40
2022-10-09T07:30:02.852Z,5.58
2022-10-09T07:32:33.611Z,5.78
2022-10-09T07:35:04.731Z,5.96
2022-10-09T07:37:34.071Z,6.11
2022-10-09T07:40:05.279Z,6.21
2022-10-09T07:42:34.545Z,6.36
2022-10-09T07:45:05.686Z,6.49
2022-10-09T07:47:36.771Z,6.63
2022-10-09T07:50:09.060Z,6.79
2022-10-09T07:52:40.146Z,6.94
2022-10-09T07:55:11.784Z,7.04
2022-10-09T07:57:42.846Z,7.20
2022-10-09T08:00:15.048Z,7.36
2022-10-09T08:02:46.093Z,7.51
2022-10-09T08:05:17.184Z,7.68
2022-10-09T08:07:48.025Z,7.83
2022-10-09T08:10:19.417Z,7.98
2022-10-09T08:12:53.152Z,8.10
2022-10-09T08:15:34.340Z,8.22
2022-10-09T08:18:10.267Z,8.35
2022-10-09T08:20:43.246Z,8.47
2022-10-09T08:26:42.953Z,8.72
2022-10-09T08:29:20.959Z,8.84
2022-10-09T08:31:52.165Z,8.97
2022-10-09T08:34:21.609Z,9.07
2022-10-09T08:36:52.489Z,9.16
2022-10-09T08:39:23.924Z,9.28
2022-10-09T08:41:57.832Z,9.40
2022-10-09T08:44:33.222Z,9.50
2022-10-09T08:47:13.620Z,9.62
2022-10-09T08:49:53.884Z,9.73
2022-10-09T08:52:30.018Z,9.83
2022-10-09T08:55:05.400Z,9.93
2022-10-09T08:57:37.159Z,10.02
2022-10-09T09:00:17.386Z,10.11
2022-10-09T09:03:15.875Z,10.20
2022-10-09T09:05:55.921Z,10.28
2022-10-09T09:08:38.166Z,10.34
2022-10-09T09:11:21.666Z,10.42
2022-10-09T09:14:04.247Z,10.49
2022-10-09T09:16:42.448Z,10.56
2022-10-09T09:19:47.170Z,10.63
2022-10-09T09:22:19.106Z,10.72
2022-10-09T09:24:54.591Z,10.80
2022-10-09T09:27:28.976Z,10.87
2022-10-09T09:30:04.464Z,10.96
2022-10-09T09:32:36.012Z,11.01
2022-10-09T09:35:22.581Z,11.05
2022-10-09T09:37:53.696Z,11.11
2022-10-09T09:40:36.254Z,11.17
2022-10-09T09:43:18.049Z,11.20
2022-10-09T09:45:50.180Z,11.24
2022-10-09T09:48:29.307Z,11.30
2022-10-09T09:51:26.990Z,11.37
2022-10-09T09:53:57.886Z,11.38
2022-10-09T09:59:42.105Z,11.47
2022-10-09T10:02:18.163Z,11.49
2022-10-09T10:05:02.854Z,11.49
2022-10-09T10:07:37.856Z,11.56
2022-10-09T10:10:25.017Z,11.63
2022-10-09T10:13:01.654Z,11.69
2022-10-09T10:15:34.972Z,11.69
2022-10-09T10:18:08.755Z,11.73
2022-10-09T10:20:48.388Z,11.76
2022-10-09T10:23:34.184Z,11.76
2022-10-09T10:26:17.109Z,11.86
2022-10-09T10:28:53.941Z,11.92
2022-10-09T10:31:37.482Z,11.92
2022-10-09T10:34:15.398Z,11.95
2022-10-09T10:36:46.673Z,12.01
2022-10-09T10:39:31.045Z,12.06
2022-10-09T10:42:07.879Z,12.12
2022-10-09T10:44:50.031Z,12.19
2022-10-09T10:47:25.438Z,12.25
2022-10-09T10:49:56.707Z,12.29
2022-10-09T10:52:39.933Z,12.34
2022-10-09T10:55:28.112Z,12.38
2022-10-09T10:58:09.584Z,12.39
2022-10-09T11:00:50.165Z,12.44
2022-10-09T11:03:37.463Z,12.50
2022-10-09T11:06:10.009Z,12.58
2022-10-09T11:09:00.906Z,12.61
2022-10-09T11:11:38.611Z,12.66
2022-10-09T11:14:23.287Z,12.68
2022-10-09T11:17:07.270Z,12.71
2022-10-09T11:20:07.937Z,12.71
2022-10-09T11:22:56.808Z,12.73
2022-10-09T11:25:37.802Z,12.73
2022-10-09T11:28:13.698Z,12.72
2022-10-09T11:30:51.043Z,12.72
2022-10-09T11:33:33.841Z,12.75
2022-10-09T11:36:12.382Z,12.78
2022-10-09T11:38:47.730Z,12.82
2022-10-09T11:41:19.632Z,12.88
2022-10-09T11:44:02.404Z,12.93
2022-10-09T11:46:47.718Z,12.99
2022-10-09T11:49:26.303Z,13.02
2022-10-09T11:52:02.769Z,13.07
2022-10-09T11:54:35.179Z,13.12
2022-10-09T11:57:12.931Z,13.13
2022-10-09T11:59:45.814Z,13.16
2022-10-09T12:02:29.130Z,13.20
2022-10-09T12:05:00.218Z,13.28
2022-10-09T12:07:34.697Z,13.32
2022-10-09T12:10:10.201Z,13.36
2022-10-09T12:12:40.958Z,13.39
2022-10-09T12:15:29.170Z,13.43
2022-10-09T12:17:59.843Z,13.45
2022-10-09T12:20:31.781Z,13.50
2022-10-09T12:23:25.820Z,13.55
2022-10-09T12:25:54.906Z,13.60
2022-10-09T12:28:30.591Z,13.66
2022-10-09T12:31:04.565Z,13.71
2022-10-09T12:33:41.286Z,13.72
2022-10-09T12:36:14.249Z,13.73
2022-10-09T12:38:45.312Z,13.72
2022-10-09T12:41:21.904Z,13.75
2022-10-09T12:43:54.571Z,13.80
2022-10-09T12:46:37.120Z,13.84
2022-10-09T12:49:18.397Z,13.86
2022-10-09T12:51:56.586Z,13.88
2022-10-09T12:54:28.768Z,13.84
2022-10-09T12:57:01.798Z,13.86
2022-10-09T12:59:34.110Z,13.87
2022-10-09T13:02:05.477Z,13.88
2022-10-09T13:04:36.691Z,13.89
2022-10-09T13:07:19.738Z,13.92
2022-10-09T13:09:51.242Z,13.92
2022-10-09T13:12:25.456Z,13.95
2022-10-09T13:18:58.437Z,14.01
2022-10-09T13:21:35.202Z,14.01
2022-10-09T13:24:41.993Z,14.02
2022-10-09T13:27:16.486Z,14.04
2022-10-09T13:29:50.588Z,14.08
2022-10-09T13:32:22.907Z,14.08
2022-10-09T13:34:55.214Z,14.08
2022-10-09T13:37:45.532Z,14.07
2022-10-09T13:40:21.820Z,14.10
2022-10-09T13:42:57.423Z,14.13
2022-10-09T13:45:28.650Z,14.14
2022-10-09T13:47:59.689Z,14.13
2022-10-09T13:50:31.460Z,14.14
2022-10-09T13:53:02.390Z,14.15
2022-10-09T13:55:33.493Z,14.15
2022-10-09T13:58:04.688Z,14.16
2022-10-09T14:00:37.150Z,14.17
2022-10-09T14:03:07.949Z,14.20
2022-10-09T14:05:38.864Z,14.22
2022-10-09T14:08:10.482Z,14.23
2022-10-09T14:10:43.513Z,14.26
2022-10-09T14:13:14.662Z,14.26
2022-10-09T14:15:45.632Z,14.26
2022-10-09T14:18:16.760Z,14.25
2022-10-09T14:20:47.582Z,14.23
2022-10-09T14:23:18.562Z,14.21
2022-10-09T14:25:49.338Z,14.22
2022-10-09T14:28:20.261Z,14.22
2022-10-09T14:34:34.333Z,14.21
2022-10-09T14:37:18.845Z,14.23
2022-10-09T14:39:59.271Z,14.46
2022-10-09T14:42:30.294Z,15.14
2022-10-09T14:45:19.690Z,15.20
2022-10-09T14:47:53.892Z,15.91
2022-10-09T14:50:24.790Z,16.55
2022-10-09T14:52:55.925Z,17.02
2022-10-09T14:55:27.240Z,17.38
2022-10-09T14:57:58.189Z,17.68
2022-10-09T15:04:18.458Z,18.34
2022-10-09T15:06:52.334Z,18.59
2022-10-09T15:09:23.038Z,18.70
2022-10-09T15:11:55.696Z,18.71
2022-10-09T15:14:27.156Z,18.71
2022-10-09T15:16:57.975Z,18.77
2022-10-09T15:19:29.097Z,18.80
2022-10-09T15:22:00.023Z,18.79
2022-10-09T15:24:30.919Z,18.71
2022-10-09T15:27:01.993Z,18.67
2022-10-09T15:29:33.067Z,18.60
2022-10-09T15:32:03.961Z,18.51
2022-10-09T15:34:38.750Z,18.36
2022-10-09T15:37:11.948Z,18.17
2022-10-09T15:39:42.906Z,18.00
2022-10-09T15:42:13.746Z,17.78
2022-10-09T15:44:45.390Z,17.56
2022-10-09T15:47:16.899Z,17.28
2022-10-09T15:49:53.442Z,16.98
2022-10-09T15:52:25.192Z,16.52
2022-10-09T15:54:56.163Z,15.84
2022-10-09T15:57:27.050Z,15.22
2022-10-09T15:59:58.285Z,14.77
2022-10-09T16:02:29.352Z,14.44
2022-10-09T16:05:00.305Z,14.09
2022-10-09T16:07:31.307Z,13.77
2022-10-09T16:10:02.318Z,13.35
2022-10-09T16:12:36.256Z,12.93
2022-10-09T16:15:08.528Z,12.61
2022-10-09T16:17:39.300Z,12.35
2022-10-09T16:20:09.312Z,12.11
2022-10-09T16:22:40.632Z,11.85
2022-10-09T16:25:12.623Z,11.54
2022-10-09T16:27:43.635Z,11.25
2022-10-09T16:30:16.886Z,11.02
2022-10-09T16:32:49.972Z,10.81
2022-10-09T16:35:22.190Z,10.62
2022-10-09T16:37:54.048Z,10.44
2022-10-09T16:40:37.521Z,10.28
2022-10-09T16:43:16.511Z,10.12
2022-10-09T16:45:47.382Z,9.95
2022-10-09T16:48:18.221Z,9.77
2022-10-09T16:50:49.907Z,9.59
2022-10-09T16:53:20.814Z,9.46
2022-10-09T16:55:50.264Z,9.32
2022-10-09T16:58:21.104Z,9.18
2022-10-09T17:00:51.936Z,9.05
2022-10-09T17:03:21.287Z,8.96
2022-10-09T17:05:52.219Z,8.82
2022-10-09T17:08:23.857Z,8.71
2022-10-09T17:10:54.741Z,8.56
2022-10-09T17:13:25.540Z,8.38
2022-10-09T17:15:56.406Z,8.23
2022-10-09T17:18:27.238Z,8.14
2022-10-09T17:20:58.354Z,8.05
2022-10-09T17:23:29.220Z,7.98
2022-10-09T17:26:05.867Z,7.88
2022-10-09T17:28:37.275Z,7.80
2022-10-09T17:31:11.322Z,7.71
2022-10-09T17:33:46.136Z,7.63
2022-10-09T17:36:19.254Z,7.54
2022-10-09T17:38:51.805Z,7.44
2022-10-09T17:41:28.078Z,7.35
2022-10-09T17:43:59.755Z,7.26
2022-10-09T17:46:32.420Z,7.17
2022-10-09T17:49:03.576Z,7.07
2022-10-09T17:51:36.145Z,7.04
2022-10-09T17:54:11.913Z,6.99
2022-10-09T17:56:44.550Z,6.91
2022-10-09T17:59:16.348Z,6.85
2022-10-09T18:01:47.444Z,6.77
2022-10-09T18:04:19.548Z,6.68
2022-10-09T18:06:50.649Z,6.61
2022-10-09T18:09:21.817Z,6.55
2022-10-09T18:11:52.848Z,6.49
2022-10-09T18:14:23.660Z,6.38
2022-10-09T18:16:55.068Z,6.30
2022-10-09T18:19:26.008Z,6.22
2022-10-09T18:21:56.975Z,6.16
2022-10-09T18:24:27.967Z,6.11
2022-10-09T18:26:58.923Z,6.05
2022-10-09T18:29:30.114Z,6.01
2022-10-09T18:32:00.807Z,5.98
2022-10-09T18:34:35.679Z,5.94
2022-10-09T18:37:09.140Z,5.87
2022-10-09T18:39:40.077Z,5.82
2022-10-09T18:42:10.894Z,5.76
2022-10-09T18:44:43.004Z,5.73
2022-10-09T18:47:17.686Z,5.69
2022-10-09T18:49:53.661Z,5.65
2022-10-09T18:52:24.781Z,5.58
2022-10-09T18:54:58.178Z,5.48
2022-10-09T18:57:29.993Z,5.42
2022-10-09T19:00:02.128Z,5.40
2022-10-09T19:02:33.025Z,5.38
2022-10-09T19:05:04.203Z,5.33
2022-10-09T19:07:35.044Z,5.28
2022-10-09T19:10:08.251Z,5.29
2022-10-09T19:12:43.724Z,5.36
2022-10-09T19:15:14.759Z,5.43
2022-10-09T19:17:45.615Z,5.51
2022-10-09T19:20:16.578Z,5.56
2022-10-09T19:22:49.631Z,5.60
2022-10-09T19:25:23.828Z,5.60
2022-10-09T19:27:54.899Z,5.58
2022-10-09T19:30:24.220Z,5.53
2022-10-09T19:32:58.581Z,5.44
2022-10-09T19:35:29.524Z,5.35
2022-10-09T19:38:03.174Z,5.29
2022-10-09T19:40:35.485Z,5.26
2022-10-09T19:43:06.376Z,5.24
2022-10-09T19:45:37.770Z,5.21
2022-10-09T19:48:08.798Z,5.18
2022-10-09T19:50:43.247Z,5.11
2022-10-09T19:53:14.690Z,4.99
2022-10-09T19:55:46.089Z,4.84
2022-10-09T19:58:18.024Z,4.82
2022-10-09T20:00:50.195Z,4.81
2022-10-09T20:03:21.470Z,4.79
2022-10-09T20:05:52.442Z,4.79
2022-10-09T20:08:23.345Z,4.81
2022-10-09T20:10:58.419Z,4.81
2022-10-09T20:13:29.373Z,4.81
2022-10-09T20:15:59.679Z,4.82
2022-10-09T20:18:30.991Z,4.80
2022-10-09T20:21:02.189Z,4.77
2022-10-09T20:23:33.156Z,4.74
2022-10-09T20:26:05.551Z,4.73
2022-10-09T20:28:38.259Z,4.73
2022-10-09T20:31:14.622Z,4.71
2022-10-09T20:33:46.843Z,4.69
2022-10-09T20:36:23.349Z,4.65
2022-10-09T20:38:57.360Z,4.60
2022-10-09T20:41:29.684Z,4.57
2022-10-09T20:44:02.577Z,4.52
2022-10-09T20:46:35.706Z,4.49
2022-10-09T20:49:16.331Z,4.46
2022-10-09T20:51:47.447Z,4.43
2022-10-09T20:54:19.956Z,4.40
2022-10-09T20:56:51.067Z,4.36
2022-10-09T20:59:20.319Z,4.32
2022-10-09T21:01:51.268Z,4.27
2022-10-09T21:04:22.111Z,4.24
2022-10-09T21:06:52.911Z,4.21
2022-10-09T21:09:23.690Z,4.17
2022-10-09T21:11:54.738Z,4.14
2022-10-09T21:14:25.415Z,4.11
2022-10-09T21:16:56.190Z,4.08
2022-10-09T21:19:27.177Z,4.04
2022-10-09T21:21:58.080Z,4.00
2022-10-09T21:24:29.398Z,3.95
2022-10-09T21:27:00.416Z,3.92
2022-10-09T21:29:31.187Z,3.90
2022-10-09T21:32:02.014Z,3.88
2022-10-09T21:34:32.854Z,3.87
2022-10-09T21:39:54.843Z,3.83
2022-10-09T21:42:25.861Z,3.80
2022-10-09T21:44:56.678Z,3.76
2022-10-09T21:47:27.603Z,3.72
2022-10-09T21:49:58.526Z,3.70
2022-10-09T21:52:29.441Z,3.67
2022-10-09T21:55:00.662Z,3.66
2022-10-09T21:57:32.072Z,3.63
2022-10-09T22:00:03.056Z,3.60
2022-10-09T22:02:34.142Z,3.58
2022-10-09T22:05:05.013Z,3.55
2022-10-09T22:07:36.003Z,3.52
2022-10-09T22:10:08.230Z,3.49
2022-10-09T22:12:39.296Z,3.47
2022-10-09T22:15:11.249Z,3.45
2022-10-09T22:17:42.315Z,3.41
2022-10-09T22:20:14.175Z,3.39
2022-10-09T22:22:44.996Z,3.34
2022-10-09T22:25:16.163Z,3.32
2022-10-09T22:27:47.055Z,3.28
2022-10-09T22:30:18.010Z,3.24
2022-10-09T22:32:49.307Z,3.21
2022-10-09T22:35:20.830Z,3.16
2022-10-09T22:37:57.383Z,3.11
2022-10-09T22:40:33.349Z,3.09
2022-10-09T22:43:04.130Z,3.06
2022-10-09T22:45:39.359Z,3.03
2022-10-09T22:48:10.364Z,3.00
2022-10-09T22:50:41.296Z,2.93
2022-10-09T22:53:12.487Z,2.92
2022-10-09T22:55:44.158Z,2.88
2022-10-09T22:58:15.188Z,2.85
2022-10-09T23:00:44.938Z,2.83
2022-10-09T23:03:15.785Z,2.81
2022-10-09T23:05:47.086Z,2.79
2022-10-09T23:08:17.934Z,2.77
2022-10-09T23:10:48.844Z,2.75
2022-10-09T23:13:21.786Z,2.73
2022-10-09T23:15:52.722Z,2.70
2022-10-09T23:18:23.457Z,2.68
2022-10-09T23:20:54.359Z,2.66
2022-10-09T23:23:35.050Z,2.62
2022-10-09T23:26:08.596Z,2.56
2022-10-09T23:28:40.189Z,2.41
2022-10-09T23:31:13.561Z,2.32
2022-10-09T23:33:46.401Z,2.27
2022-10-09T23:36:20.164Z,2.25
2022-10-09T23:38:51.922Z,2.22
2022-10-09T23:41:24.068Z,2.21
2022-10-09T23:43:55.711Z,2.20
2022-10-09T23:46:29.185Z,2.19
2022-10-09T23:49:00.979Z,2.17
2022-10-09T23:51:32.066Z,2.17
2022-10-09T23:54:03.088Z,2.13
2022-10-09T23:56:36.280Z,2.15
2022-10-09T23:59:08.439Z,2.13
